createdAt,value
2018-08-16T00:03:35.413Z,2.50
2018-08-16T00:08:40.160Z,2.08
2018-08-16T00:13:44.908Z,2.20
2018-08-16T00:18:49.957Z,2.15
2018-08-16T00:23:54.673Z,2.30
2018-08-16T00:28:59.583Z,2.50
2018-08-16T00:34:04.282Z,2.55
2018-08-16T00:39:10.231Z,2.22
2018-08-16T00:44:15.186Z,2.30
2018-08-16T00:49:23.910Z,2.40
2018-08-16T00:54:28.666Z,2.33
2018-08-16T00:59:33.804Z,2.47
2018-08-16T01:04:38.547Z,2.50
2018-08-16T01:09:43.234Z,3.70
2018-08-16T01:14:48.010Z,2.40
2018-08-16T01:19:52.724Z,2.70
2018-08-16T01:24:57.670Z,2.83
2018-08-16T01:30:02.644Z,2.50
2018-08-16T01:35:08.310Z,2.65
2018-08-16T01:40:13.015Z,2.52
2018-08-16T01:45:17.836Z,2.90
2018-08-16T01:50:22.805Z,2.95
2018-08-16T01:55:27.736Z,2.80
2018-08-16T02:00:32.602Z,3.17
2018-08-16T02:05:37.313Z,3.12
2018-08-16T02:10:42.000Z,3.42
2018-08-16T02:16:03.024Z,3.58
2018-08-16T02:21:08.054Z,3.37
2018-08-16T02:26:12.986Z,3.60
2018-08-16T02:31:17.709Z,3.33
2018-08-16T02:36:23.111Z,3.58
2018-08-16T02:41:27.818Z,3.90
2018-08-16T02:46:32.926Z,3.50
2018-08-16T02:51:37.839Z,3.72
2018-08-16T02:56:42.683Z,3.40
2018-08-16T03:01:47.536Z,3.72
2018-08-16T03:06:54.330Z,3.67
2018-08-16T03:11:59.155Z,4.12
2018-08-16T03:17:03.945Z,3.50
2018-08-16T03:22:08.908Z,3.72
2018-08-16T03:27:13.756Z,4.12
2018-08-16T03:32:21.058Z,3.65
2018-08-16T03:37:25.820Z,4.03
2018-08-16T03:42:30.822Z,4.28
2018-08-16T03:47:35.499Z,4.12
2018-08-16T03:52:40.408Z,4.30
2018-08-16T03:57:45.245Z,3.98
2018-08-16T04:02:50.227Z,4.03
2018-08-16T04:07:55.442Z,4.60
2018-08-16T04:13:00.755Z,4.22
2018-08-16T04:18:05.482Z,4.30
2018-08-16T04:23:12.714Z,4.70
2018-08-16T04:28:17.454Z,4.78
2018-08-16T04:33:22.275Z,4.67
2018-08-16T04:38:27.749Z,4.97
2018-08-16T04:43:32.492Z,5.33
2018-08-16T04:48:38.924Z,4.40
2018-08-16T04:53:43.907Z,5.08
2018-08-16T04:58:48.736Z,5.03
2018-08-16T05:03:53.584Z,4.62
2018-08-16T05:08:58.919Z,4.28
2018-08-16T05:14:04.413Z,3.95
2018-08-16T05:19:10.126Z,4.33
2018-08-16T05:24:16.072Z,5.30
2018-08-16T05:29:25.561Z,5.45
2018-08-16T05:34:33.274Z,4.40
2018-08-16T05:39:43.402Z,4.12
2018-08-16T05:44:51.612Z,4.40
2018-08-16T05:49:59.152Z,3.77
2018-08-16T05:55:06.750Z,3.90
2018-08-16T06:00:19.262Z,3.77
2018-08-16T06:05:28.218Z,3.42
2018-08-16T06:10:38.808Z,3.60
2018-08-16T06:15:47.020Z,3.22
2018-08-16T06:20:55.451Z,3.37
2018-08-16T06:26:05.163Z,4.10
2018-08-16T06:31:13.075Z,3.35
2018-08-16T06:36:18.023Z,2.92
2018-08-16T06:41:22.909Z,3.00
2018-08-16T06:46:27.734Z,2.98
2018-08-16T06:51:32.479Z,3.58
2018-08-16T06:56:38.035Z,2.35
2018-08-16T07:01:42.997Z,2.52
2018-08-16T07:06:48.674Z,2.58
2018-08-16T07:12:03.447Z,2.42
2018-08-16T07:17:09.364Z,2.25
2018-08-16T07:22:14.353Z,2.60
2018-08-16T07:27:19.279Z,2.62
2018-08-16T07:32:24.578Z,3.20
2018-08-16T07:37:29.902Z,3.30
2018-08-16T07:42:34.812Z,2.67
2018-08-16T07:47:40.371Z,2.75
2018-08-16T07:52:45.706Z,2.50
2018-08-16T07:57:50.629Z,2.05
2018-08-16T08:02:55.328Z,2.37
2018-08-16T08:08:00.372Z,2.40
2018-08-16T08:13:05.398Z,2.20
2018-08-16T08:18:10.410Z,2.55
2018-08-16T08:23:15.168Z,2.35
2018-08-16T08:28:19.828Z,2.37
2018-08-16T08:33:24.544Z,2.50
2018-08-16T08:38:29.412Z,2.33
2018-08-16T08:43:45.289Z,3.35
2018-08-16T08:48:50.012Z,2.87
2018-08-16T08:55:03.768Z,2.40
2018-08-16T09:00:08.829Z,3.10
2018-08-16T09:05:13.639Z,3.17
2018-08-16T09:10:55.177Z,2.65
2018-08-16T09:16:00.946Z,3.60
2018-08-16T09:21:05.974Z,3.37
2018-08-16T09:26:16.455Z,3.20
2018-08-16T09:31:32.498Z,3.87
2018-08-16T09:36:37.697Z,3.72
2018-08-16T09:41:42.681Z,3.77
2018-08-16T09:47:08.024Z,3.85
2018-08-16T09:52:13.557Z,3.00
2018-08-16T09:57:18.641Z,2.85
2018-08-16T10:02:23.457Z,2.60
2018-08-16T10:07:28.328Z,2.62
2018-08-16T10:12:33.667Z,3.05
2018-08-16T10:17:38.620Z,2.55
2018-08-16T10:22:43.547Z,2.50
2018-08-16T10:27:48.936Z,2.80
2018-08-16T10:32:53.916Z,2.87
2018-08-16T10:37:58.763Z,2.55
2018-08-16T10:43:03.590Z,2.67
2018-08-16T10:48:09.045Z,2.40
2018-08-16T10:53:13.845Z,2.47
2018-08-16T10:58:18.591Z,3.62
2018-08-16T11:03:24.430Z,1.90
2018-08-16T11:08:29.649Z,2.40
2018-08-16T11:13:34.689Z,2.12
2018-08-16T11:18:39.734Z,2.10
2018-08-16T11:23:44.435Z,2.15
2018-08-16T11:28:49.261Z,2.37
2018-08-16T11:33:54.372Z,2.12
2018-08-16T11:38:58.933Z,1.92
2018-08-16T11:44:04.269Z,1.95
2018-08-16T11:49:09.572Z,1.82
2018-08-16T11:54:15.269Z,1.60
2018-08-16T11:59:21.635Z,2.00
2018-08-16T12:04:26.409Z,1.75
2018-08-16T12:09:31.234Z,1.55
2018-08-16T12:14:36.239Z,1.65
2018-08-16T12:19:41.905Z,1.70
2018-08-16T12:24:46.806Z,1.47
2018-08-16T12:29:52.141Z,1.47
2018-08-16T12:35:03.344Z,1.55
2018-08-16T12:40:08.808Z,1.35
2018-08-16T12:45:13.845Z,1.40
2018-08-16T12:50:19.211Z,1.52
2018-08-16T12:55:24.429Z,1.05
2018-08-16T13:00:29.351Z,1.25
2018-08-16T13:05:34.129Z,1.05
2018-08-16T13:10:39.091Z,0.93
2018-08-16T13:15:44.865Z,0.90
2018-08-16T13:20:49.831Z,0.80
2018-08-16T13:25:54.795Z,0.98
2018-08-16T13:31:00.452Z,0.70
2018-08-16T13:36:05.312Z,1.00
2018-08-16T13:41:10.007Z,0.93
2018-08-16T13:46:14.866Z,0.80
2018-08-16T13:51:19.682Z,0.90
2018-08-16T13:56:24.683Z,1.02
2018-08-16T14:01:46.619Z,0.75
2018-08-16T14:06:51.433Z,0.90
2018-08-16T14:11:57.096Z,4.65
2018-08-16T14:17:01.904Z,1.00
2018-08-16T14:22:07.060Z,0.90
2018-08-16T14:27:12.176Z,1.20
2018-08-16T14:32:18.690Z,0.90
2018-08-16T14:37:24.387Z,1.07
2018-08-16T14:42:29.742Z,1.05
2018-08-16T14:47:35.890Z,0.80
2018-08-16T14:52:40.761Z,0.90
2018-08-16T14:57:45.625Z,0.93
2018-08-16T15:02:51.072Z,0.80
2018-08-16T15:07:55.685Z,1.22
2018-08-16T15:13:01.436Z,0.70
2018-08-16T15:18:06.543Z,0.85
2018-08-16T15:23:11.185Z,0.98
2018-08-16T15:28:16.096Z,0.85
2018-08-16T15:33:20.827Z,1.00
2018-08-16T15:38:25.617Z,1.20
2018-08-16T15:43:30.425Z,1.00
2018-08-16T15:48:35.129Z,1.30
2018-08-16T15:53:40.577Z,1.10
2018-08-16T15:58:45.847Z,1.40
2018-08-16T16:03:50.577Z,1.30
2018-08-16T16:08:55.544Z,1.22
2018-08-16T16:14:01.013Z,1.12
2018-08-16T16:19:05.790Z,1.20
2018-08-16T16:24:11.384Z,1.10
2018-08-16T16:29:16.100Z,1.02
2018-08-16T16:34:20.981Z,1.17
2018-08-16T16:39:25.728Z,1.20
2018-08-16T16:44:30.714Z,1.30
2018-08-16T16:49:35.911Z,1.00
2018-08-16T16:54:40.809Z,1.15
2018-08-16T16:59:47.965Z,1.15
2018-08-16T17:04:53.071Z,1.20
2018-08-16T17:09:57.962Z,1.10
2018-08-16T17:15:02.734Z,1.20
2018-08-16T17:20:08.002Z,1.20
2018-08-16T17:25:12.734Z,1.98
2018-08-16T17:30:18.595Z,1.37
2018-08-16T17:35:23.571Z,1.20
2018-08-16T17:40:28.436Z,1.50
2018-08-16T17:45:33.808Z,1.17
2018-08-16T17:50:38.460Z,1.30
2018-08-16T17:55:43.149Z,1.30
2018-08-16T18:00:48.446Z,1.50
2018-08-16T18:05:53.240Z,9.63
2018-08-16T18:10:57.988Z,3.02
2018-08-16T18:16:02.727Z,2.50
2018-08-16T18:21:07.689Z,6.03
2018-08-16T18:26:12.585Z,5.90
2018-08-16T18:31:18.303Z,2.42
2018-08-16T18:36:23.078Z,2.30
2018-08-16T18:41:27.722Z,4.03
2018-08-16T18:46:33.347Z,2.05
2018-08-16T18:51:38.962Z,1.65
2018-08-16T18:56:43.901Z,1.40
2018-08-16T19:01:49.895Z,1.72
2018-08-16T19:06:58.370Z,1.60
2018-08-16T19:12:03.563Z,1.80
2018-08-16T19:17:09.096Z,2.17
2018-08-16T19:22:14.209Z,1.87
2018-08-16T19:27:19.176Z,1.80
2018-08-16T19:32:23.796Z,2.12
2018-08-16T19:37:29.228Z,1.65
2018-08-16T19:42:35.005Z,1.80
2018-08-16T19:47:40.496Z,1.70
2018-08-16T19:52:47.969Z,1.80
2018-08-16T19:57:53.316Z,1.92
2018-08-16T20:02:59.792Z,1.90
2018-08-16T20:08:04.544Z,1.55
2018-08-16T20:13:09.304Z,1.72
2018-08-16T20:18:18.541Z,1.70
2018-08-16T20:23:24.510Z,1.62
2018-08-16T20:28:29.811Z,1.67
2018-08-16T20:33:34.880Z,1.90
2018-08-16T20:38:39.539Z,1.70
2018-08-16T20:43:44.625Z,1.80
2018-08-16T20:48:49.577Z,1.82
2018-08-16T20:53:54.430Z,1.70
2018-08-16T20:58:59.261Z,2.33
2018-08-16T21:04:04.117Z,1.70
2018-08-16T21:09:10.140Z,1.82
2018-08-16T21:14:15.837Z,1.85
2018-08-16T21:19:20.592Z,1.92
2018-08-16T21:24:26.187Z,2.15
2018-08-16T21:29:31.160Z,2.10
2018-08-16T21:34:35.937Z,2.42
2018-08-16T21:39:40.527Z,1.98
2018-08-16T21:44:45.353Z,2.50
2018-08-16T21:49:50.109Z,2.35
2018-08-16T21:54:54.728Z,2.17
2018-08-16T21:59:59.550Z,2.15
2018-08-16T22:05:04.698Z,2.25
2018-08-16T22:10:09.375Z,2.62
2018-08-16T22:15:14.680Z,2.17
2018-08-16T22:20:19.649Z,2.30
2018-08-16T22:25:25.710Z,2.47
2018-08-16T22:30:30.660Z,2.20
2018-08-16T22:35:35.148Z,2.45
2018-08-16T22:40:40.018Z,2.55
2018-08-16T22:45:45.178Z,2.08
2018-08-16T22:50:50.015Z,2.52
2018-08-16T22:55:54.706Z,2.12
2018-08-16T23:00:59.585Z,2.30
2018-08-16T23:06:04.272Z,2.10
2018-08-16T23:11:09.752Z,2.37
2018-08-16T23:16:14.462Z,2.35
2018-08-16T23:21:18.963Z,2.20
2018-08-16T23:26:24.394Z,2.45
2018-08-16T23:31:29.294Z,1.90
2018-08-16T23:36:33.949Z,2.00
2018-08-16T23:41:38.789Z,2.30
2018-08-16T23:46:44.294Z,2.17
2018-08-16T23:51:49.070Z,2.00
2018-08-16T23:56:53.913Z,2.05
